sensor_id;sensor_type;location;lat;lon;timestamp;P1;durP1;ratioP1;P2;durP2;ratioP2
75499;SDS011;64076;51.466;7.260;2023-03-04T00:01:16;12.07;;;7.63;;
75499;SDS011;64076;51.466;7.260;2023-03-04T00:03:42;13.00;;;7.78;;
75499;SDS011;64076;51.466;7.260;2023-03-04T00:06:08;12.65;;;7.72;;
75499;SDS011;64076;51.466;7.260;2023-03-04T00:08:34;12.30;;;8.00;;
75499;SDS011;64076;51.466;7.260;2023-03-04T00:11:00;10.73;;;7.40;;
75499;SDS011;64076;51.466;7.260;2023-03-04T00:13:26;10.55;;;7.35;;
75499;SDS011;64076;51.466;7.260;2023-03-04T00:15:52;12.60;;;7.70;;
75499;SDS011;64076;51.466;7.260;2023-03-04T00:18:18;10.70;;;6.77;;
75499;SDS011;64076;51.466;7.260;2023-03-04T00:20:45;12.35;;;7.32;;
75499;SDS011;64076;51.466;7.260;2023-03-04T00:23:11;10.13;;;6.78;;
75499;SDS011;64076;51.466;7.260;2023-03-04T00:25:37;10.88;;;6.53;;
75499;SDS011;64076;51.466;7.260;2023-03-04T00:28:03;11.63;;;6.68;;
75499;SDS011;64076;51.466;7.260;2023-03-04T00:30:29;11.97;;;7.00;;
75499;SDS011;64076;51.466;7.260;2023-03-04T00:32:55;10.90;;;6.40;;
75499;SDS011;64076;51.466;7.260;2023-03-04T00:35:21;10.32;;;6.45;;
75499;SDS011;64076;51.466;7.260;2023-03-04T00:37:47;11.75;;;6.32;;
75499;SDS011;64076;51.466;7.260;2023-03-04T00:40:13;10.10;;;5.87;;
75499;SDS011;64076;51.466;7.260;2023-03-04T00:42:39;12.17;;;6.23;;
75499;SDS011;64076;51.466;7.260;2023-03-04T00:45:05;10.88;;;6.18;;
75499;SDS011;64076;51.466;7.260;2023-03-04T00:47:31;10.13;;;6.10;;
75499;SDS011;64076;51.466;7.260;2023-03-04T00:49:57;12.45;;;6.00;;
75499;SDS011;64076;51.466;7.260;2023-03-04T00:52:23;9.23;;;5.83;;
75499;SDS011;64076;51.466;7.260;2023-03-04T00:54:49;10.55;;;6.22;;
75499;SDS011;64076;51.466;7.260;2023-03-04T00:57:15;11.73;;;6.05;;
75499;SDS011;64076;51.466;7.260;2023-03-04T00:59:41;12.00;;;5.40;;
75499;SDS011;64076;51.466;7.260;2023-03-04T01:02:08;11.50;;;6.23;;
75499;SDS011;64076;51.466;7.260;2023-03-04T01:04:34;12.10;;;5.50;;
75499;SDS011;64076;51.466;7.260;2023-03-04T01:09:28;9.32;;;5.55;;
75499;SDS011;64076;51.466;7.260;2023-03-04T01:11:54;9.45;;;5.20;;
75499;SDS011;64076;51.466;7.260;2023-03-04T01:14:20;7.73;;;5.20;;
75499;SDS011;64076;51.466;7.260;2023-03-04T01:16:47;9.40;;;5.43;;
75499;SDS011;64076;51.466;7.260;2023-03-04T01:19:13;8.93;;;5.18;;
75499;SDS011;64076;51.466;7.260;2023-03-04T01:21:39;9.35;;;4.95;;
75499;SDS011;64076;51.466;7.260;2023-03-04T01:24:05;9.82;;;4.90;;
75499;SDS011;64076;51.466;7.260;2023-03-04T01:26:31;10.13;;;5.03;;
75499;SDS011;64076;51.466;7.260;2023-03-04T01:28:57;9.45;;;5.15;;
75499;SDS011;64076;51.466;7.260;2023-03-04T01:31:23;9.07;;;5.05;;
75499;SDS011;64076;51.466;7.260;2023-03-04T01:33:49;8.77;;;5.10;;
75499;SDS011;64076;51.466;7.260;2023-03-04T01:36:15;9.10;;;4.90;;
75499;SDS011;64076;51.466;7.260;2023-03-04T01:38:41;10.63;;;5.25;;
75499;SDS011;64076;51.466;7.260;2023-03-04T01:41:06;9.60;;;4.97;;
75499;SDS011;64076;51.466;7.260;2023-03-04T01:43:32;10.23;;;4.93;;
75499;SDS011;64076;51.466;7.260;2023-03-04T01:46:00;10.40;;;4.90;;
75499;SDS011;64076;51.466;7.260;2023-03-04T01:48:30;9.55;;;4.88;;
75499;SDS011;64076;51.466;7.260;2023-03-04T01:50:57;7.97;;;4.50;;
75499;SDS011;64076;51.466;7.260;2023-03-04T01:53:26;8.07;;;4.80;;
75499;SDS011;64076;51.466;7.260;2023-03-04T01:55:57;8.87;;;4.63;;
75499;SDS011;64076;51.466;7.260;2023-03-04T01:58:27;8.63;;;4.25;;
75499;SDS011;64076;51.466;7.260;2023-03-04T02:00:54;10.07;;;4.95;;
75499;SDS011;64076;51.466;7.260;2023-03-04T02:03:20;7.38;;;4.15;;
75499;SDS011;64076;51.466;7.260;2023-03-04T02:05:49;8.77;;;4.60;;
75499;SDS011;64076;51.466;7.260;2023-03-04T02:08:17;9.33;;;4.40;;
75499;SDS011;64076;51.466;7.260;2023-03-04T02:10:43;11.50;;;4.80;;
75499;SDS011;64076;51.466;7.260;2023-03-04T02:13:10;10.20;;;4.60;;
75499;SDS011;64076;51.466;7.260;2023-03-04T02:15:37;9.13;;;4.22;;
75499;SDS011;64076;51.466;7.260;2023-03-04T02:18:06;8.55;;;4.35;;
75499;SDS011;64076;51.466;7.260;2023-03-04T02:20:59;8.43;;;3.87;;
75499;SDS011;64076;51.466;7.260;2023-03-04T02:28:37;10.57;;;4.05;;
75499;SDS011;64076;51.466;7.260;2023-03-04T02:31:03;7.80;;;4.05;;
75499;SDS011;64076;51.466;7.260;2023-03-04T02:33:29;10.73;;;4.77;;
75499;SDS011;64076;51.466;7.260;2023-03-04T02:35:55;10.60;;;4.50;;
75499;SDS011;64076;51.466;7.260;2023-03-04T02:38:21;9.00;;;4.32;;
75499;SDS011;64076;51.466;7.260;2023-03-04T02:40:47;8.32;;;4.32;;
75499;SDS011;64076;51.466;7.260;2023-03-04T02:43:15;8.95;;;4.40;;
75499;SDS011;64076;51.466;7.260;2023-03-04T02:45:46;8.30;;;4.07;;
75499;SDS011;64076;51.466;7.260;2023-03-04T02:48:12;8.65;;;4.07;;
75499;SDS011;64076;51.466;7.260;2023-03-04T02:50:44;10.68;;;4.57;;
75499;SDS011;64076;51.466;7.260;2023-03-04T02:53:10;8.93;;;4.70;;
75499;SDS011;64076;51.466;7.260;2023-03-04T02:55:36;9.68;;;4.13;;
75499;SDS011;64076;51.466;7.260;2023-03-04T02:58:03;7.53;;;3.97;;
75499;SDS011;64076;51.466;7.260;2023-03-04T03:00:29;9.13;;;4.30;;
75499;SDS011;64076;51.466;7.260;2023-03-04T03:02:55;7.95;;;4.43;;
75499;SDS011;64076;51.466;7.260;2023-03-04T03:05:22;8.80;;;3.72;;
75499;SDS011;64076;51.466;7.260;2023-03-04T03:07:48;8.18;;;3.78;;
75499;SDS011;64076;51.466;7.260;2023-03-04T03:10:14;7.60;;;4.30;;
75499;SDS011;64076;51.466;7.260;2023-03-04T03:12:40;7.53;;;4.00;;
75499;SDS011;64076;51.466;7.260;2023-03-04T03:15:06;10.50;;;3.75;;
75499;SDS011;64076;51.466;7.260;2023-03-04T03:17:32;7.90;;;4.38;;
75499;SDS011;64076;51.466;7.260;2023-03-04T03:19:58;10.83;;;3.53;;
75499;SDS011;64076;51.466;7.260;2023-03-04T03:22:24;8.30;;;4.10;;
75499;SDS011;64076;51.466;7.260;2023-03-04T03:24:50;9.68;;;4.47;;
75499;SDS011;64076;51.466;7.260;2023-03-04T03:27:16;7.60;;;3.78;;
75499;SDS011;64076;51.466;7.260;2023-03-04T03:29:42;8.20;;;4.20;;
75499;SDS011;64076;51.466;7.260;2023-03-04T03:32:08;8.38;;;3.33;;
75499;SDS011;64076;51.466;7.260;2023-03-04T03:34:34;9.02;;;3.60;;
75499;SDS011;64076;51.466;7.260;2023-03-04T03:37:00;10.20;;;3.63;;
75499;SDS011;64076;51.466;7.260;2023-03-04T03:39:26;7.70;;;4.40;;
75499;SDS011;64076;51.466;7.260;2023-03-04T03:41:52;10.77;;;4.03;;
75499;SDS011;64076;51.466;7.260;2023-03-04T03:44:18;8.45;;;4.07;;
75499;SDS011;64076;51.466;7.260;2023-03-04T03:46:44;8.50;;;3.85;;
75499;SDS011;64076;51.466;7.260;2023-03-04T03:49:11;8.10;;;3.70;;
75499;SDS011;64076;51.466;7.260;2023-03-04T03:51:37;9.38;;;3.70;;
75499;SDS011;64076;51.466;7.260;2023-03-04T03:54:03;7.78;;;3.80;;
75499;SDS011;64076;51.466;7.260;2023-03-04T03:56:29;9.77;;;3.50;;
75499;SDS011;64076;51.466;7.260;2023-03-04T03:58:55;7.27;;;3.50;;
75499;SDS011;64076;51.466;7.260;2023-03-04T04:01:21;9.13;;;3.70;;
75499;SDS011;64076;51.466;7.260;2023-03-04T04:03:47;10.20;;;3.88;;
75499;SDS011;64076;51.466;7.260;2023-03-04T04:06:13;8.38;;;3.25;;
75499;SDS011;64076;51.466;7.260;2023-03-04T04:08:39;8.47;;;2.90;;
75499;SDS011;64076;51.466;7.260;2023-03-04T04:11:05;9.77;;;4.00;;
75499;SDS011;64076;51.466;7.260;2023-03-04T04:13:31;8.68;;;3.10;;
75499;SDS011;64076;51.466;7.260;2023-03-04T04:15:57;7.95;;;3.08;;
75499;SDS011;64076;51.466;7.260;2023-03-04T04:18:23;6.25;;;3.22;;
75499;SDS011;64076;51.466;7.260;2023-03-04T04:20:50;8.17;;;3.43;;
75499;SDS011;64076;51.466;7.260;2023-03-04T04:23:16;9.50;;;3.80;;
75499;SDS011;64076;51.466;7.260;2023-03-04T04:25:42;7.80;;;3.17;;
75499;SDS011;64076;51.466;7.260;2023-03-04T04:28:08;7.97;;;3.60;;
75499;SDS011;64076;51.466;7.260;2023-03-04T04:30:34;9.07;;;3.50;;
75499;SDS011;64076;51.466;7.260;2023-03-04T04:33:00;7.70;;;3.63;;
75499;SDS011;64076;51.466;7.260;2023-03-04T04:35:28;8.73;;;3.60;;
75499;SDS011;64076;51.466;7.260;2023-03-04T04:37:54;9.02;;;3.28;;
75499;SDS011;64076;51.466;7.260;2023-03-04T04:40:20;7.13;;;3.33;;
75499;SDS011;64076;51.466;7.260;2023-03-04T04:42:46;6.75;;;3.53;;
75499;SDS011;64076;51.466;7.260;2023-03-04T04:45:12;7.90;;;3.33;;
75499;SDS011;64076;51.466;7.260;2023-03-04T04:47:38;6.15;;;2.90;;
75499;SDS011;64076;51.466;7.260;2023-03-04T04:50:04;6.83;;;3.00;;
75499;SDS011;64076;51.466;7.260;2023-03-04T04:52:30;7.03;;;3.10;;
75499;SDS011;64076;51.466;7.260;2023-03-04T04:54:56;6.22;;;3.38;;
75499;SDS011;64076;51.466;7.260;2023-03-04T04:57:22;9.02;;;3.20;;
75499;SDS011;64076;51.466;7.260;2023-03-04T04:59:48;7.83;;;2.90;;
75499;SDS011;64076;51.466;7.260;2023-03-04T05:02:14;7.35;;;3.60;;
75499;SDS011;64076;51.466;7.260;2023-03-04T05:04:40;7.40;;;2.75;;
75499;SDS011;64076;51.466;7.260;2023-03-04T05:07:06;8.90;;;3.20;;
75499;SDS011;64076;51.466;7.260;2023-03-04T05:09:32;7.57;;;2.93;;
75499;SDS011;64076;51.466;7.260;2023-03-04T05:11:57;5.85;;;2.92;;
75499;SDS011;64076;51.466;7.260;2023-03-04T05:14:23;6.78;;;3.15;;
75499;SDS011;64076;51.466;7.260;2023-03-04T05:16:50;7.22;;;3.00;;
75499;SDS011;64076;51.466;7.260;2023-03-04T05:19:17;6.50;;;2.90;;
75499;SDS011;64076;51.466;7.260;2023-03-04T05:21:43;6.83;;;2.90;;
75499;SDS011;64076;51.466;7.260;2023-03-04T05:24:09;8.38;;;3.10;;
75499;SDS011;64076;51.466;7.260;2023-03-04T05:26:35;7.05;;;3.45;;
75499;SDS011;64076;51.466;7.260;2023-03-04T05:29:01;9.75;;;2.85;;
75499;SDS011;64076;51.466;7.260;2023-03-04T05:31:27;8.43;;;2.90;;
75499;SDS011;64076;51.466;7.260;2023-03-04T05:33:53;7.28;;;2.92;;
75499;SDS011;64076;51.466;7.260;2023-03-04T05:36:19;8.13;;;3.20;;
75499;SDS011;64076;51.466;7.260;2023-03-04T05:38:45;6.80;;;2.67;;
75499;SDS011;64076;51.466;7.260;2023-03-04T05:41:11;5.57;;;2.67;;
75499;SDS011;64076;51.466;7.260;2023-03-04T05:43:37;7.25;;;2.80;;
75499;SDS011;64076;51.466;7.260;2023-03-04T05:46:06;7.05;;;2.95;;
75499;SDS011;64076;51.466;7.260;2023-03-04T05:48:32;6.18;;;2.67;;
75499;SDS011;64076;51.466;7.260;2023-03-04T05:50:59;7.17;;;2.73;;
75499;SDS011;64076;51.466;7.260;2023-03-04T05:53:26;5.67;;;2.67;;
75499;SDS011;64076;51.466;7.260;2023-03-04T05:55:52;6.60;;;2.70;;
75499;SDS011;64076;51.466;7.260;2023-03-04T05:58:18;7.25;;;2.95;;
75499;SDS011;64076;51.466;7.260;2023-03-04T06:00:45;9.50;;;2.90;;
75499;SDS011;64076;51.466;7.260;2023-03-04T06:03:21;5.80;;;2.55;;
75499;SDS011;64076;51.466;7.260;2023-03-04T06:05:47;7.30;;;2.60;;
75499;SDS011;64076;51.466;7.260;2023-03-04T06:08:12;6.28;;;2.35;;
75499;SDS011;64076;51.466;7.260;2023-03-04T06:10:39;7.27;;;2.80;;
75499;SDS011;64076;51.466;7.260;2023-03-04T06:13:06;4.53;;;2.15;;
75499;SDS011;64076;51.466;7.260;2023-03-04T06:15:32;5.53;;;2.55;;
75499;SDS011;64076;51.466;7.260;2023-03-04T06:17:57;4.43;;;1.60;;
75499;SDS011;64076;51.466;7.260;2023-03-04T06:20:23;6.20;;;2.15;;
75499;SDS011;64076;51.466;7.260;2023-03-04T06:22:48;3.93;;;1.63;;
75499;SDS011;64076;51.466;7.260;2023-03-04T06:25:14;4.17;;;1.77;;
75499;SDS011;64076;51.466;7.260;2023-03-04T06:27:39;3.03;;;1.50;;
75499;SDS011;64076;51.466;7.260;2023-03-04T06:30:05;3.63;;;1.50;;
75499;SDS011;64076;51.466;7.260;2023-03-04T06:32:31;2.53;;;1.20;;
75499;SDS011;64076;51.466;7.260;2023-03-04T06:34:57;2.93;;;1.13;;
75499;SDS011;64076;51.466;7.260;2023-03-04T06:37:22;3.23;;;1.20;;
75499;SDS011;64076;51.466;7.260;2023-03-04T06:39:48;2.92;;;1.60;;
75499;SDS011;64076;51.466;7.260;2023-03-04T06:42:14;2.57;;;1.07;;
75499;SDS011;64076;51.466;7.260;2023-03-04T06:44:40;1.80;;;0.83;;
75499;SDS011;64076;51.466;7.260;2023-03-04T06:47:05;2.17;;;0.90;;
75499;SDS011;64076;51.466;7.260;2023-03-04T06:49:31;3.40;;;1.00;;
75499;SDS011;64076;51.466;7.260;2023-03-04T06:51:57;2.50;;;1.10;;
75499;SDS011;64076;51.466;7.260;2023-03-04T06:54:22;2.07;;;0.77;;
75499;SDS011;64076;51.466;7.260;2023-03-04T06:56:48;2.13;;;0.93;;
75499;SDS011;64076;51.466;7.260;2023-03-04T06:59:15;2.90;;;0.90;;
75499;SDS011;64076;51.466;7.260;2023-03-04T07:01:40;2.70;;;1.10;;
75499;SDS011;64076;51.466;7.260;2023-03-04T07:04:06;2.50;;;0.80;;
75499;SDS011;64076;51.466;7.260;2023-03-04T07:06:32;2.05;;;0.80;;
75499;SDS011;64076;51.466;7.260;2023-03-04T07:08:57;1.90;;;0.80;;
75499;SDS011;64076;51.466;7.260;2023-03-04T07:11:23;1.88;;;0.80;;
75499;SDS011;64076;51.466;7.260;2023-03-04T07:13:49;1.97;;;0.80;;
75499;SDS011;64076;51.466;7.260;2023-03-04T07:16:16;2.35;;;0.82;;
75499;SDS011;64076;51.466;7.260;2023-03-04T07:18:44;1.50;;;0.60;;
75499;SDS011;64076;51.466;7.260;2023-03-04T07:21:10;1.70;;;0.68;;
75499;SDS011;64076;51.466;7.260;2023-03-04T07:23:38;2.60;;;0.52;;
75499;SDS011;64076;51.466;7.260;2023-03-04T07:26:04;2.20;;;0.70;;
75499;SDS011;64076;51.466;7.260;2023-03-04T07:28:30;2.65;;;0.60;;
75499;SDS011;64076;51.466;7.260;2023-03-04T07:30:56;1.80;;;0.75;;
75499;SDS011;64076;51.466;7.260;2023-03-04T07:33:22;1.98;;;0.63;;
75499;SDS011;64076;51.466;7.260;2023-03-04T07:35:48;1.77;;;0.70;;
75499;SDS011;64076;51.466;7.260;2023-03-04T07:38:14;1.90;;;0.63;;
75499;SDS011;64076;51.466;7.260;2023-03-04T07:40:40;2.00;;;0.60;;
75499;SDS011;64076;51.466;7.260;2023-03-04T07:43:06;1.52;;;0.60;;
75499;SDS011;64076;51.466;7.260;2023-03-04T07:45:31;1.60;;;0.50;;
75499;SDS011;64076;51.466;7.260;2023-03-04T07:47:57;1.23;;;0.50;;
75499;SDS011;64076;51.466;7.260;2023-03-04T07:50:23;2.28;;;0.57;;
75499;SDS011;64076;51.466;7.260;2023-03-04T07:52:49;2.00;;;0.70;;
75499;SDS011;64076;51.466;7.260;2023-03-04T07:55:15;1.33;;;0.40;;
75499;SDS011;64076;51.466;7.260;2023-03-04T07:57:42;2.95;;;0.80;;
75499;SDS011;64076;51.466;7.260;2023-03-04T08:00:09;1.67;;;0.60;;
75499;SDS011;64076;51.466;7.260;2023-03-04T08:02:35;1.58;;;0.40;;
75499;SDS011;64076;51.466;7.260;2023-03-04T08:05:01;1.73;;;0.40;;
75499;SDS011;64076;51.466;7.260;2023-03-04T08:07:27;1.60;;;0.60;;
75499;SDS011;64076;51.466;7.260;2023-03-04T08:09:52;2.07;;;0.50;;
75499;SDS011;64076;51.466;7.260;2023-03-04T08:12:18;1.93;;;0.63;;
75499;SDS011;64076;51.466;7.260;2023-03-04T08:14:44;1.55;;;0.63;;
75499;SDS011;64076;51.466;7.260;2023-03-04T08:17:09;1.60;;;0.67;;
75499;SDS011;64076;51.466;7.260;2023-03-04T08:19:35;1.42;;;0.60;;
75499;SDS011;64076;51.466;7.260;2023-03-04T08:22:01;1.20;;;0.50;;
75499;SDS011;64076;51.466;7.260;2023-03-04T08:24:27;1.77;;;0.50;;
75499;SDS011;64076;51.466;7.260;2023-03-04T08:26:53;1.63;;;0.47;;
75499;SDS011;64076;51.466;7.260;2023-03-04T08:29:20;1.10;;;0.40;;
75499;SDS011;64076;51.466;7.260;2023-03-04T08:31:47;1.48;;;0.60;;
75499;SDS011;64076;51.466;7.260;2023-03-04T08:34:13;1.40;;;0.53;;
75499;SDS011;64076;51.466;7.260;2023-03-04T08:36:42;2.05;;;0.60;;
75499;SDS011;64076;51.466;7.260;2023-03-04T08:39:08;1.45;;;0.43;;
75499;SDS011;64076;51.466;7.260;2023-03-04T08:41:34;1.60;;;0.50;;
75499;SDS011;64076;51.466;7.260;2023-03-04T08:44:00;1.50;;;0.60;;
75499;SDS011;64076;51.466;7.260;2023-03-04T08:46:26;1.20;;;0.40;;
75499;SDS011;64076;51.466;7.260;2023-03-04T08:48:52;1.40;;;0.50;;
75499;SDS011;64076;51.466;7.260;2023-03-04T08:51:18;1.20;;;0.52;;
75499;SDS011;64076;51.466;7.260;2023-03-04T08:53:44;1.20;;;0.43;;
75499;SDS011;64076;51.466;7.260;2023-03-04T08:56:11;1.33;;;0.60;;
75499;SDS011;64076;51.466;7.260;2023-03-04T08:58:37;1.42;;;0.70;;
75499;SDS011;64076;51.466;7.260;2023-03-04T09:01:03;2.35;;;0.70;;
75499;SDS011;64076;51.466;7.260;2023-03-04T09:03:29;1.45;;;0.50;;
75499;SDS011;64076;51.466;7.260;2023-03-04T09:05:55;1.08;;;0.60;;
75499;SDS011;64076;51.466;7.260;2023-03-04T09:08:21;1.27;;;0.70;;
75499;SDS011;64076;51.466;7.260;2023-03-04T09:10:51;1.40;;;0.70;;
75499;SDS011;64076;51.466;7.260;2023-03-04T09:13:17;1.60;;;0.60;;
75499;SDS011;64076;51.466;7.260;2023-03-04T09:15:43;1.50;;;0.80;;
75499;SDS011;64076;51.466;7.260;2023-03-04T09:18:09;1.67;;;1.00;;
75499;SDS011;64076;51.466;7.260;2023-03-04T09:20:35;1.30;;;0.68;;
75499;SDS011;64076;51.466;7.260;2023-03-04T09:23:01;1.80;;;1.10;;
75499;SDS011;64076;51.466;7.260;2023-03-04T09:25:27;1.98;;;1.05;;
75499;SDS011;64076;51.466;7.260;2023-03-04T09:27:53;1.70;;;1.10;;
75499;SDS011;64076;51.466;7.260;2023-03-04T09:30:19;2.33;;;0.90;;
75499;SDS011;64076;51.466;7.260;2023-03-04T09:32:46;1.45;;;0.90;;
75499;SDS011;64076;51.466;7.260;2023-03-04T09:35:11;1.58;;;0.90;;
75499;SDS011;64076;51.466;7.260;2023-03-04T09:37:37;2.20;;;1.10;;
75499;SDS011;64076;51.466;7.260;2023-03-04T09:40:04;1.67;;;1.07;;
75499;SDS011;64076;51.466;7.260;2023-03-04T09:42:32;2.17;;;1.03;;
75499;SDS011;64076;51.466;7.260;2023-03-04T09:44:59;1.63;;;0.90;;
75499;SDS011;64076;51.466;7.260;2023-03-04T09:47:26;1.63;;;1.00;;
75499;SDS011;64076;51.466;7.260;2023-03-04T09:49:54;1.92;;;1.05;;
75499;SDS011;64076;51.466;7.260;2023-03-04T09:52:25;2.08;;;1.20;;
75499;SDS011;64076;51.466;7.260;2023-03-04T09:55:04;1.63;;;1.00;;
75499;SDS011;64076;51.466;7.260;2023-03-04T10:05:30;1.85;;;1.10;;
75499;SDS011;64076;51.466;7.260;2023-03-04T10:08:01;1.93;;;1.20;;
75499;SDS011;64076;51.466;7.260;2023-03-04T10:10:35;1.90;;;1.20;;
75499;SDS011;64076;51.466;7.260;2023-03-04T10:13:02;2.22;;;1.20;;
75499;SDS011;64076;51.466;7.260;2023-03-04T10:15:41;1.60;;;1.10;;
75499;SDS011;64076;51.466;7.260;2023-03-04T10:18:21;2.00;;;1.30;;
75499;SDS011;64076;51.466;7.260;2023-03-04T10:20:52;2.00;;;1.60;;
75499;SDS011;64076;51.466;7.260;2023-03-04T10:23:21;2.08;;;1.17;;
75499;SDS011;64076;51.466;7.260;2023-03-04T10:25:47;2.35;;;1.50;;
75499;SDS011;64076;51.466;7.260;2023-03-04T10:28:19;1.80;;;1.30;;
75499;SDS011;64076;51.466;7.260;2023-03-04T10:30:56;1.90;;;1.33;;
75499;SDS011;64076;51.466;7.260;2023-03-04T10:33:33;2.20;;;1.43;;
75499;SDS011;64076;51.466;7.260;2023-03-04T10:36:03;3.05;;;1.60;;
75499;SDS011;64076;51.466;7.260;2023-03-04T10:38:31;2.45;;;1.50;;
75499;SDS011;64076;51.466;7.260;2023-03-04T10:40:58;5.70;;;3.40;;
75499;SDS011;64076;51.466;7.260;2023-03-04T10:43:24;5.55;;;3.35;;
75499;SDS011;64076;51.466;7.260;2023-03-04T10:45:54;5.07;;;3.27;;
75499;SDS011;64076;51.466;7.260;2023-03-04T10:48:23;4.65;;;3.30;;
75499;SDS011;64076;51.466;7.260;2023-03-04T10:50:49;6.13;;;4.03;;
75499;SDS011;64076;51.466;7.260;2023-03-04T10:53:22;5.78;;;3.85;;
75499;SDS011;64076;51.466;7.260;2023-03-04T10:55:49;8.60;;;5.35;;
75499;SDS011;64076;51.466;7.260;2023-03-04T10:58:15;8.70;;;6.03;;
75499;SDS011;64076;51.466;7.260;2023-03-04T11:00:44;8.15;;;6.18;;
75499;SDS011;64076;51.466;7.260;2023-03-04T11:05:44;7.13;;;5.47;;
75499;SDS011;64076;51.466;7.260;2023-03-04T11:08:17;7.13;;;4.90;;
75499;SDS011;64076;51.466;7.260;2023-03-04T11:10:43;8.80;;;5.70;;
75499;SDS011;64076;51.466;7.260;2023-03-04T11:13:17;9.25;;;6.20;;
75499;SDS011;64076;51.466;7.260;2023-03-04T11:15:48;10.20;;;7.20;;
75499;SDS011;64076;51.466;7.260;2023-03-04T11:18:14;14.65;;;9.60;;
75499;SDS011;64076;51.466;7.260;2023-03-04T11:20:41;9.30;;;6.63;;
75499;SDS011;64076;51.466;7.260;2023-03-04T11:23:12;9.55;;;6.60;;
75499;SDS011;64076;51.466;7.260;2023-03-04T11:25:41;9.55;;;6.53;;
75499;SDS011;64076;51.466;7.260;2023-03-04T11:28:13;8.57;;;5.70;;
75499;SDS011;64076;51.466;7.260;2023-03-04T11:30:53;7.95;;;5.97;;
75499;SDS011;64076;51.466;7.260;2023-03-04T11:33:32;9.33;;;6.10;;
75499;SDS011;64076;51.466;7.260;2023-03-04T11:38:49;6.55;;;4.88;;
75499;SDS011;64076;51.466;7.260;2023-03-04T11:41:31;6.72;;;4.75;;
75499;SDS011;64076;51.466;7.260;2023-03-04T11:44:00;5.78;;;4.50;;
75499;SDS011;64076;51.466;7.260;2023-03-04T11:46:38;7.60;;;5.00;;
75499;SDS011;64076;51.466;7.260;2023-03-04T11:57:39;5.85;;;3.78;;
75499;SDS011;64076;51.466;7.260;2023-03-04T12:02:43;5.88;;;3.53;;
75499;SDS011;64076;51.466;7.260;2023-03-04T12:05:19;5.40;;;3.33;;
75499;SDS011;64076;51.466;7.260;2023-03-04T12:07:57;4.95;;;3.13;;
75499;SDS011;64076;51.466;7.260;2023-03-04T12:10:32;4.82;;;3.33;;
75499;SDS011;64076;51.466;7.260;2023-03-04T12:15:44;4.15;;;2.72;;
75499;SDS011;64076;51.466;7.260;2023-03-04T12:23:32;3.45;;;2.38;;
75499;SDS011;64076;51.466;7.260;2023-03-04T12:26:06;2.67;;;2.20;;
75499;SDS011;64076;51.466;7.260;2023-03-04T12:28:38;2.60;;;1.80;;
75499;SDS011;64076;51.466;7.260;2023-03-04T12:41:20;2.40;;;2.00;;
75499;SDS011;64076;51.466;7.260;2023-03-04T12:46:17;2.00;;;1.60;;
75499;SDS011;64076;51.466;7.260;2023-03-04T12:48:51;2.50;;;1.40;;
75499;SDS011;64076;51.466;7.260;2023-03-04T12:57:01;2.05;;;1.45;;
75499;SDS011;64076;51.466;7.260;2023-03-04T12:59:00;1.52;;;1.13;;
75499;SDS011;64076;51.466;7.260;2023-03-04T13:01:28;1.80;;;1.20;;
75499;SDS011;64076;51.466;7.260;2023-03-04T13:03:59;2.00;;;1.45;;
75499;SDS011;64076;51.466;7.260;2023-03-04T13:06:48;1.88;;;1.40;;
75499;SDS011;64076;51.466;7.260;2023-03-04T13:11:52;1.98;;;1.35;;
75499;SDS011;64076;51.466;7.260;2023-03-04T13:19:44;1.80;;;1.17;;
75499;SDS011;64076;51.466;7.260;2023-03-04T13:22:31;1.83;;;1.05;;
75499;SDS011;64076;51.466;7.260;2023-03-04T13:25:00;1.45;;;1.00;;
75499;SDS011;64076;51.466;7.260;2023-03-04T13:27:43;1.70;;;1.17;;
75499;SDS011;64076;51.466;7.260;2023-03-04T13:32:54;1.63;;;1.13;;
75499;SDS011;64076;51.466;7.260;2023-03-04T13:38:19;1.50;;;1.02;;
75499;SDS011;64076;51.466;7.260;2023-03-04T13:43:36;1.92;;;1.10;;
75499;SDS011;64076;51.466;7.260;2023-03-04T13:51:28;1.60;;;1.15;;
75499;SDS011;64076;51.466;7.260;2023-03-04T13:58:50;1.70;;;1.20;;
75499;SDS011;64076;51.466;7.260;2023-03-04T14:01:24;1.90;;;1.23;;
75499;SDS011;64076;51.466;7.260;2023-03-04T14:03:50;1.80;;;1.30;;
75499;SDS011;64076;51.466;7.260;2023-03-04T14:06:21;1.57;;;1.10;;
75499;SDS011;64076;51.466;7.260;2023-03-04T14:08:48;1.98;;;1.15;;
75499;SDS011;64076;51.466;7.260;2023-03-04T14:11:16;1.48;;;1.10;;
75499;SDS011;64076;51.466;7.260;2023-03-04T14:13:44;1.63;;;1.15;;
75499;SDS011;64076;51.466;7.260;2023-03-04T14:16:10;1.70;;;1.20;;
75499;SDS011;64076;51.466;7.260;2023-03-04T14:18:36;1.90;;;1.30;;
75499;SDS011;64076;51.466;7.260;2023-03-04T14:21:02;1.58;;;1.02;;
75499;SDS011;64076;51.466;7.260;2023-03-04T14:23:29;1.70;;;1.15;;
75499;SDS011;64076;51.466;7.260;2023-03-04T14:26:13;1.50;;;0.90;;
75499;SDS011;64076;51.466;7.260;2023-03-04T14:28:46;1.77;;;1.20;;
75499;SDS011;64076;51.466;7.260;2023-03-04T14:31:14;1.70;;;1.20;;
75499;SDS011;64076;51.466;7.260;2023-03-04T14:33:42;1.85;;;1.10;;
75499;SDS011;64076;51.466;7.260;2023-03-04T14:36:12;1.40;;;0.90;;
75499;SDS011;64076;51.466;7.260;2023-03-04T14:38:40;1.42;;;1.05;;
75499;SDS011;64076;51.466;7.260;2023-03-04T14:41:17;1.50;;;1.00;;
75499;SDS011;64076;51.466;7.260;2023-03-04T14:43:52;1.70;;;1.10;;
75499;SDS011;64076;51.466;7.260;2023-03-04T14:46:19;1.40;;;1.02;;
75499;SDS011;64076;51.466;7.260;2023-03-04T14:48:50;1.52;;;0.95;;
75499;SDS011;64076;51.466;7.260;2023-03-04T14:51:27;1.40;;;0.98;;
75499;SDS011;64076;51.466;7.260;2023-03-04T14:53:54;1.63;;;0.90;;
75499;SDS011;64076;51.466;7.260;2023-03-04T14:56:27;1.30;;;0.73;;
75499;SDS011;64076;51.466;7.260;2023-03-04T14:58:55;1.30;;;0.82;;
75499;SDS011;64076;51.466;7.260;2023-03-04T15:01:22;1.40;;;0.80;;
75499;SDS011;64076;51.466;7.260;2023-03-04T15:03:54;1.70;;;0.90;;
75499;SDS011;64076;51.466;7.260;2023-03-04T15:06:22;1.40;;;0.80;;
75499;SDS011;64076;51.466;7.260;2023-03-04T15:08:55;1.50;;;1.00;;
75499;SDS011;64076;51.466;7.260;2023-03-04T15:12:05;1.42;;;0.93;;
75499;SDS011;64076;51.466;7.260;2023-03-04T15:16:56;1.40;;;0.80;;
75499;SDS011;64076;51.466;7.260;2023-03-04T15:19:23;1.37;;;0.70;;
75499;SDS011;64076;51.466;7.260;2023-03-04T15:21:49;1.30;;;0.80;;
75499;SDS011;64076;51.466;7.260;2023-03-04T15:24:15;1.63;;;0.77;;
75499;SDS011;64076;51.466;7.260;2023-03-04T15:26:42;1.60;;;0.90;;
75499;SDS011;64076;51.466;7.260;2023-03-04T15:29:16;1.38;;;0.80;;
75499;SDS011;64076;51.466;7.260;2023-03-04T15:31:43;1.60;;;0.80;;
75499;SDS011;64076;51.466;7.260;2023-03-04T15:34:15;1.42;;;0.63;;
75499;SDS011;64076;51.466;7.260;2023-03-04T15:36:46;1.50;;;0.70;;
75499;SDS011;64076;51.466;7.260;2023-03-04T15:39:13;1.55;;;0.60;;
75499;SDS011;64076;51.466;7.260;2023-03-04T15:41:40;1.88;;;0.73;;
75499;SDS011;64076;51.466;7.260;2023-03-04T15:44:06;1.30;;;0.70;;
75499;SDS011;64076;51.466;7.260;2023-03-04T15:46:32;1.30;;;0.52;;
75499;SDS011;64076;51.466;7.260;2023-03-04T15:48:58;1.40;;;0.70;;
75499;SDS011;64076;51.466;7.260;2023-03-04T15:51:24;1.25;;;0.43;;
75499;SDS011;64076;51.466;7.260;2023-03-04T15:53:51;1.60;;;0.70;;
75499;SDS011;64076;51.466;7.260;2023-03-04T15:56:18;1.45;;;0.70;;
75499;SDS011;64076;51.466;7.260;2023-03-04T15:59:05;1.80;;;0.70;;
75499;SDS011;64076;51.466;7.260;2023-03-04T16:01:31;1.73;;;0.60;;
75499;SDS011;64076;51.466;7.260;2023-03-04T16:03:57;1.30;;;0.60;;
75499;SDS011;64076;51.466;7.260;2023-03-04T16:06:24;1.53;;;0.60;;
75499;SDS011;64076;51.466;7.260;2023-03-04T16:08:51;1.60;;;0.63;;
75499;SDS011;64076;51.466;7.260;2023-03-04T16:11:19;1.40;;;0.70;;
75499;SDS011;64076;51.466;7.260;2023-03-04T16:13:45;1.70;;;0.70;;
75499;SDS011;64076;51.466;7.260;2023-03-04T16:16:12;1.42;;;0.60;;